Time;durP1;ratioP1;P1;durP2;ratioP2;P2;SDS_P1;SDS_P2;PMS_P1;PMS_P2;Temp;Humidity;BMP_temperature;BMP_pressure;BME280_temperature;BME280_humidity;BME280_pressure;Samples;Min_cycle;Max_cycle;Signal;HPM_P1;HPM_P2
2022/06/23 00:00:05;;;;;;;9.60;5.73;;;20.00;99.90;;;;;;5080157;28;20181;-50
2022/06/23 00:02:32;;;;;;;9.77;5.20;;;20.00;99.90;;;;;;5079476;28;20471;-49
2022/06/23 00:05:00;;;;;;;8.00;5.23;;;20.00;99.90;;;;;;5080266;28;20437;-49
2022/06/23 00:07:33;;;;;;;9.23;5.40;;;19.90;99.90;;;;;;5080247;28;20429;-47
2022/06/23 00:10:00;;;;;;;9.97;5.27;;;19.90;99.90;;;;;;5063363;28;20424;-47
2022/06/23 00:12:28;;;;;;;10.50;5.60;;;19.90;99.90;;;;;;5079518;28;20493;-52
2022/06/23 00:15:04;;;;;;;10.50;5.50;;;19.90;99.90;;;;;;5079855;28;20423;-48
2022/06/23 00:17:33;;;;;;;11.57;5.67;;;19.90;99.90;;;;;;5080189;28;20856;-49
2022/06/23 00:20:06;;;;;;;11.47;4.90;;;19.90;99.90;;;;;;5080444;28;20437;-51
2022/06/23 00:22:33;;;;;;;10.10;5.63;;;19.90;99.90;;;;;;5080056;28;20476;-48
2022/06/23 00:25:02;;;;;;;7.17;5.20;;;19.90;99.90;;;;;;5079720;28;20414;-51
2022/06/23 00:27:31;;;;;;;9.80;5.60;;;20.00;99.90;;;;;;5079397;28;20540;-49
2022/06/23 00:30:00;;;;;;;11.10;5.30;;;20.00;99.90;;;;;;5061013;28;20736;-51
2022/06/23 00:32:26;;;;;;;15.33;5.00;;;19.90;99.90;;;;;;5079743;28;20472;-47
2022/06/23 00:35:05;;;;;;;15.23;5.93;;;20.00;99.90;;;;;;5079909;28;20455;-51
2022/06/23 00:37:30;;;;;;;13.13;5.77;;;20.00;99.90;;;;;;5078921;28;20748;-49
2022/06/23 00:40:04;;;;;;;5.73;3.90;;;19.90;99.90;;;;;;5078900;28;20416;-48
2022/06/23 00:42:50;;;;;;;10.90;5.80;;;19.90;99.90;;;;;;5078667;28;20483;-50
2022/06/23 00:45:39;;;;;;;10.07;5.60;;;19.90;99.90;;;;;;5079655;28;20409;-48
2022/06/23 00:48:23;;;;;;;11.27;5.10;;;19.90;99.90;;;;;;5078922;28;20689;-51
2022/06/23 00:50:58;;;;;;;11.50;5.20;;;19.80;99.90;;;;;;5079829;28;20412;-48
2022/06/23 00:53:52;;;;;;;9.23;4.83;;;19.80;99.90;;;;;;5079728;28;20425;-49
2022/06/23 00:56:31;;;;;;;9.57;6.20;;;19.80;99.90;;;;;;5078549;28;20442;-51
2022/06/23 00:59:02;;;;;;;6.90;5.40;;;19.80;99.90;;;;;;5079251;28;20429;-48
2022/06/23 01:01:49;;;;;;;12.63;6.77;;;19.80;99.90;;;;;;5078629;28;20485;-48
2022/06/23 01:04:33;;;;;;;10.23;5.37;;;19.80;99.90;;;;;;5077742;28;20408;-49
2022/06/23 01:07:12;;;;;;;9.40;5.23;;;19.70;99.90;;;;;;5079518;28;20519;-49
2022/06/23 01:09:48;;;;;;;9.53;6.10;;;19.80;99.90;;;;;;5078594;28;20424;-50
2022/06/23 01:12:37;;;;;;;8.53;5.90;;;19.80;99.90;;;;;;5079157;28;20705;-48
2022/06/23 01:15:15;;;;;;;8.83;4.90;;;19.80;99.90;;;;;;5079437;28;20419;-49
2022/06/23 01:17:46;;;;;;;9.93;4.40;;;19.80;99.90;;;;;;5079398;28;20426;-48
2022/06/23 01:20:36;;;;;;;6.77;5.00;;;19.70;99.90;;;;;;5079244;28;20416;-49
2022/06/23 01:23:29;;;;;;;10.67;7.10;;;19.70;99.90;;;;;;5078635;28;20522;-50
2022/06/23 01:26:16;;;;;;;9.00;5.43;;;19.70;99.90;;;;;;5077981;28;20690;-51
2022/06/23 01:28:42;;;;;;;9.47;5.40;;;19.60;99.90;;;;;;5077769;28;20453;-50
2022/06/23 01:31:37;;;;;;;8.60;5.83;;;19.60;99.90;;;;;;5077768;28;20504;-48
2022/06/23 01:34:30;;;;;;;7.17;4.70;;;19.60;99.90;;;;;;5074958;28;20768;-50
2022/06/23 01:37:24;;;;;;;12.10;5.40;;;19.60;99.90;;;;;;5063301;28;20520;-48
2022/06/23 01:40:16;;;;;;;11.87;5.30;;;19.50;99.90;;;;;;5077226;28;20525;-48
2022/06/23 01:43:03;;;;;;;7.03;5.03;;;19.50;99.90;;;;;;5078618;28;20463;-49
2022/06/23 01:49:02;;;;;;;7.73;5.13;;;19.50;99.90;;;;;;5078095;28;20814;-49
2022/06/23 01:51:33;;;;;;;8.40;5.13;;;19.50;99.90;;;;;;5077650;28;20771;-48
2022/06/23 01:54:21;;;;;;;10.03;6.20;;;19.50;99.90;;;;;;5078198;28;20448;-48
2022/06/23 01:57:09;;;;;;;10.20;5.37;;;19.50;99.90;;;;;;5077886;28;20744;-48
2022/06/23 02:00:08;;;;;;;9.60;5.20;;;19.40;99.90;;;;;;5076949;28;20432;-50
2022/06/23 02:02:48;;;;;;;8.97;6.10;;;19.30;99.90;;;;;;5037776;28;20917;-48
2022/06/23 02:05:35;;;;;;;11.10;5.90;;;19.20;99.90;;;;;;5078263;28;20420;-49
2022/06/23 02:08:29;;;;;;;8.93;5.57;;;19.20;99.90;;;;;;5078241;28;20419;-48
2022/06/23 02:11:06;;;;;;;9.07;5.33;;;19.20;99.90;;;;;;5077204;28;20424;-49
2022/06/23 02:13:40;;;;;;;9.53;5.70;;;19.20;99.90;;;;;;5076839;28;20451;-48
2022/06/23 02:16:21;;;;;;;9.30;5.87;;;19.30;99.90;;;;;;5077390;28;20462;-49
2022/06/23 02:18:57;;;;;;;10.40;5.67;;;19.30;99.90;;;;;;5077565;28;20420;-49
2022/06/23 02:21:31;;;;;;;9.47;5.70;;;19.30;99.90;;;;;;5077095;28;20470;-48
2022/06/23 02:24:21;;;;;;;8.93;5.40;;;19.20;99.90;;;;;;5076848;28;20430;-50
2022/06/23 02:26:55;;;;;;;11.67;6.03;;;19.10;99.90;;;;;;5077533;28;20464;-51
2022/06/23 02:29:50;;;;;;;9.70;5.80;;;19.10;99.90;;;;;;5077450;28;20422;-48
2022/06/23 02:32:43;;;;;;;10.30;6.40;;;19.00;99.90;;;;;;5067514;28;20491;-48
2022/06/23 02:35:11;;;;;;;5.77;5.20;;;19.00;99.90;;;;;;5064161;28;20515;-50
2022/06/23 02:38:01;;;;;;;7.00;5.07;;;19.00;99.90;;;;;;5076635;28;20820;-50
2022/06/23 02:40:33;;;;;;;9.23;5.57;;;19.00;99.90;;;;;;5076392;28;20818;-48
2022/06/23 02:43:32;;;;;;;6.70;4.80;;;19.10;99.90;;;;;;5076285;28;20569;-47
2022/06/23 02:46:20;;;;;;;11.63;5.60;;;19.10;99.90;;;;;;5076019;28;20413;-51
2022/06/23 02:49:03;;;;;;;9.50;5.83;;;19.10;99.90;;;;;;5076108;28;20470;-48
2022/06/23 02:51:50;;;;;;;7.50;4.93;;;19.00;99.90;;;;;;5075743;28;20416;-51
2022/06/23 02:54:19;;;;;;;6.80;5.83;;;18.90;99.90;;;;;;5075520;28;20471;-49
2022/06/23 02:56:50;;;;;;;8.97;5.90;;;18.90;99.90;;;;;;5076229;28;20826;-49
2022/06/23 02:59:37;;;;;;;8.00;5.20;;;18.90;99.90;;;;;;5076871;28;20407;-48
2022/06/23 03:02:21;;;;;;;11.43;6.43;;;19.00;99.90;;;;;;5076894;28;20460;-50
2022/06/23 03:05:15;;;;;;;11.77;5.90;;;19.00;99.90;;;;;;5075744;28;20421;-53
2022/06/23 03:08:10;;;;;;;10.33;5.53;;;19.00;99.90;;;;;;5058398;28;20534;-48
2022/06/23 03:10:43;;;;;;;8.00;5.60;;;19.10;99.90;;;;;;5037555;28;20424;-52
2022/06/23 03:13:21;;;;;;;8.73;5.87;;;19.10;99.90;;;;;;5074419;28;20693;-49
2022/06/23 03:15:51;;;;;;;9.37;5.27;;;19.10;99.90;;;;;;5073758;28;20615;-49
2022/06/23 03:19:18;;;;;;;7.17;5.10;;;19.00;99.90;;;;;;5073329;28;20429;-49
2022/06/23 03:21:46;;;;;;;9.67;5.03;;;19.00;99.90;;;;;;5002142;28;20513;-49
2022/06/23 03:24:22;;;;;;;7.10;5.30;;;18.90;99.90;;;;;;5056981;28;20424;-49
2022/06/23 03:27:12;;;;;;;8.20;5.27;;;18.90;99.90;;;;;;5075482;28;20424;-49
2022/06/23 03:29:50;;;;;;;11.43;5.90;;;19.00;99.90;;;;;;5076298;28;20833;-50
2022/06/23 03:32:25;;;;;;;7.60;5.57;;;19.10;99.90;;;;;;5075830;28;20495;-48
2022/06/23 03:35:09;;;;;;;9.57;6.30;;;19.10;99.90;;;;;;5076745;28;20810;-52
2022/06/23 03:38:07;;;;;;;9.40;5.40;;;19.20;99.90;;;;;;5076179;28;20424;-50
2022/06/23 03:43:54;;;;;;;9.40;5.30;;;19.20;99.90;;;;;;5075157;28;20513;-48
2022/06/23 03:46:25;;;;;;;12.97;6.20;;;19.20;99.90;;;;;;5076004;28;20433;-49
2022/06/23 03:48:57;;;;;;;9.90;5.77;;;19.10;99.90;;;;;;5077905;28;20414;-51
2022/06/23 03:51:26;;;;;;;7.77;6.00;;;19.20;99.90;;;;;;5077675;28;20420;-49
2022/06/23 03:53:57;;;;;;;7.63;5.30;;;19.20;99.90;;;;;;5077535;28;20419;-50
2022/06/23 03:56:26;;;;;;;9.53;5.60;;;19.20;99.90;;;;;;5079035;28;20474;-49
2022/06/23 03:59:00;;;;;;;9.23;5.10;;;19.30;99.90;;;;;;5077575;28;20420;-48
2022/06/23 04:01:29;;;;;;;7.30;5.57;;;19.30;99.90;;;;;;5078022;28;20456;-49
2022/06/23 04:04:03;;;;;;;8.73;5.63;;;19.30;99.90;;;;;;5077272;28;20839;-48
2022/06/23 04:06:37;;;;;;;7.53;5.20;;;19.30;99.90;;;;;;5078459;28;20428;-50
2022/06/23 04:09:09;;;;;;;7.37;5.30;;;19.40;99.90;;;;;;5078341;28;20426;-49
2022/06/23 04:11:44;;;;;;;8.30;6.03;;;19.40;99.90;;;;;;5077310;28;20752;-47
2022/06/23 04:14:45;;;;;;;11.60;7.07;;;19.40;99.90;;;;;;5075876;28;20440;-49
2022/06/23 04:17:26;;;;;;;9.33;6.37;;;19.40;99.90;;;;;;5044488;28;20435;-48
2022/06/23 04:20:02;;;;;;;8.30;6.40;;;19.40;99.90;;;;;;5076768;28;20904;-53
2022/06/23 04:22:40;;;;;;;10.00;6.50;;;19.40;99.90;;;;;;5075397;28;20458;-49
2022/06/23 04:25:11;;;;;;;9.10;7.17;;;19.40;99.90;;;;;;5076413;28;20421;-49
2022/06/23 04:27:44;;;;;;;9.20;5.87;;;19.40;99.90;;;;;;5074888;28;20461;-52
2022/06/23 04:30:30;;;;;;;9.63;5.73;;;19.40;99.90;;;;;;5074887;28;20433;-53
2022/06/23 04:32:57;;;;;;;9.47;5.90;;;19.40;99.90;;;;;;5075956;28;20493;-55
2022/06/23 04:35:32;;;;;;;10.30;6.97;;;19.40;99.90;;;;;;5075944;28;20451;-54
2022/06/23 04:38:13;;;;;;;11.27;6.63;;;19.40;99.90;;;;;;5076645;28;20769;-54
2022/06/23 04:40:42;;;;;;;7.90;6.23;;;19.50;99.90;;;;;;5076074;28;20879;-54
2022/06/23 04:43:41;;;;;;;10.30;6.00;;;19.50;99.90;;;;;;5077611;28;20427;-54
2022/06/23 04:46:16;;;;;;;9.97;7.00;;;19.60;99.90;;;;;;5077605;28;20694;-54
2022/06/23 04:48:54;;;;;;;10.50;6.63;;;19.70;99.90;;;;;;5076627;28;20415;-54
2022/06/23 04:51:48;;;;;;;12.33;6.47;;;19.70;99.90;;;;;;5075834;28;20420;-55
2022/06/23 04:54:20;;;;;;;13.77;7.17;;;19.80;99.90;;;;;;5075311;28;20663;-55
2022/06/23 04:56:52;;;;;;;9.23;7.30;;;19.90;99.90;;;;;;5077062;28;20416;-53
2022/06/23 04:59:33;;;;;;;9.30;5.83;;;20.00;99.90;;;;;;5074161;28;20506;-53
2022/06/23 05:02:02;;;;;;;8.53;6.47;;;20.10;99.90;;;;;;5072806;28;20459;-51
2022/06/23 05:04:52;;;;;;;9.97;7.20;;;20.20;99.90;;;;;;5073408;28;20413;-51
2022/06/23 05:07:22;;;;;;;16.83;6.30;;;20.30;99.90;;;;;;5053741;28;20425;-51
2022/06/23 05:09:50;;;;;;;12.60;7.27;;;20.30;99.90;;;;;;5072334;28;20417;-50
2022/06/23 05:12:17;;;;;;;12.00;8.17;;;20.30;99.90;;;;;;5073000;28;20674;-54
2022/06/23 05:14:50;;;;;;;10.40;8.37;;;20.30;99.90;;;;;;5074308;28;20425;-54
2022/06/23 05:17:22;;;;;;;11.60;6.97;;;20.20;99.90;;;;;;5072899;28;20436;-52
2022/06/23 05:19:48;;;;;;;11.30;7.03;;;20.20;99.90;;;;;;5054389;28;20428;-52
2022/06/23 05:22:32;;;;;;;12.83;6.37;;;20.10;99.90;;;;;;5072879;28;21002;-54
2022/06/23 05:25:07;;;;;;;9.13;6.50;;;20.10;99.90;;;;;;5068966;28;20888;-51
2022/06/23 05:27:34;;;;;;;10.07;6.50;;;20.20;99.90;;;;;;5086555;28;20436;-52
2022/06/23 05:30:07;;;;;;;14.13;6.47;;;20.30;99.90;;;;;;5090982;28;20430;-53
2022/06/23 05:32:39;;;;;;;8.90;6.10;;;20.40;99.90;;;;;;5092812;28;20480;-50
2022/06/23 05:35:13;;;;;;;11.23;7.00;;;20.50;99.90;;;;;;5075633;28;20443;-52
2022/06/23 05:37:50;;;;;;;13.53;5.90;;;20.60;99.90;;;;;;5095038;28;20405;-52
2022/06/23 05:40:31;;;;;;;9.50;6.53;;;20.80;99.90;;;;;;5093828;28;20895;-52
2022/06/23 05:43:00;;;;;;;9.37;5.50;;;20.80;99.90;;;;;;5091697;28;20787;-53
2022/06/23 05:45:38;;;;;;;9.70;5.93;;;20.90;99.90;;;;;;5091280;28;20862;-55
2022/06/23 05:48:06;;;;;;;10.23;6.40;;;21.00;99.90;;;;;;5088936;28;20424;-53
2022/06/23 05:50:41;;;;;;;8.60;6.77;;;21.10;99.90;;;;;;5091612;28;20413;-52
2022/06/23 05:53:31;;;;;;;9.97;6.67;;;21.20;99.90;;;;;;5090645;28;20769;-54
2022/06/23 05:55:59;;;;;;;10.60;6.10;;;21.20;99.90;;;;;;5076535;28;20437;-50
2022/06/23 05:58:32;;;;;;;8.90;5.73;;;21.40;99.90;;;;;;5090382;28;20578;-52
2022/06/23 06:01:15;;;;;;;10.80;6.10;;;21.50;99.90;;;;;;5088908;28;20406;-49
2022/06/23 06:03:45;;;;;;;10.30;6.73;;;21.60;99.90;;;;;;5090516;28;20427;-51
2022/06/23 06:06:11;;;;;;;12.43;7.10;;;21.70;99.90;;;;;;5090219;28;20429;-50
2022/06/23 06:11:38;;;;;;;10.73;6.80;;;21.50;99.70;;;;;;5092871;28;20416;-50
2022/06/23 06:14:04;;;;;;;14.17;8.10;;;21.50;99.90;;;;;;5093685;28;20426;-52
2022/06/23 06:16:30;;;;;;;11.17;5.60;;;21.50;99.90;;;;;;5095937;28;20428;-51
2022/06/23 06:18:57;;;;;;;11.87;6.70;;;21.50;99.90;;;;;;5091139;28;20216;-53
2022/06/23 06:21:24;;;;;;;8.50;5.90;;;21.70;99.90;;;;;;5095684;28;20562;-53
2022/06/23 06:24:06;;;;;;;12.20;6.73;;;21.60;99.90;;;;;;5094235;28;20436;-51
2022/06/23 06:26:35;;;;;;;11.43;6.10;;;21.70;99.30;;;;;;5091467;28;20423;-51
2022/06/23 06:29:19;;;;;;;9.20;6.43;;;21.80;99.40;;;;;;5091140;28;20460;-49
2022/06/23 06:31:51;;;;;;;7.23;5.77;;;21.80;99.40;;;;;;5093159;28;20485;-50
2022/06/23 06:34:39;;;;;;;8.50;5.70;;;21.80;99.40;;;;;;5091237;28;20481;-49
2022/06/23 06:37:07;;;;;;;10.30;6.93;;;21.80;99.40;;;;;;5093395;28;20511;-49
2022/06/23 06:39:40;;;;;;;9.77;6.53;;;21.80;99.50;;;;;;5092806;28;20639;-53
2022/06/23 06:42:07;;;;;;;7.23;6.50;;;22.00;99.40;;;;;;5095098;28;20474;-51
2022/06/23 06:44:36;;;;;;;7.60;5.30;;;22.10;99.40;;;;;;5092845;28;20424;-50
2022/06/23 06:47:02;;;;;;;11.37;6.60;;;22.20;99.20;;;;;;5095645;28;20765;-55
2022/06/23 06:49:30;;;;;;;11.17;6.10;;;22.30;98.70;;;;;;5094257;28;20443;-52
2022/06/23 06:51:56;;;;;;;8.53;5.93;;;22.40;98.50;;;;;;5092557;28;20436;-52
2022/06/23 06:54:23;;;;;;;10.50;6.10;;;22.40;98.10;;;;;;5077772;28;20865;-53
2022/06/23 06:56:57;;;;;;;8.40;5.67;;;22.40;98.60;;;;;;5092036;28;20445;-51
2022/06/23 06:59:36;;;;;;;8.90;5.80;;;22.50;98.60;;;;;;5076299;28;20454;-53
2022/06/23 07:02:20;;;;;;;10.33;5.60;;;22.80;97.70;;;;;;5094718;28;20573;-52
2022/06/23 07:04:54;;;;;;;10.03;4.77;;;23.10;97.10;;;;;;5093051;28;20473;-53
2022/06/23 07:07:26;;;;;;;11.90;5.40;;;23.40;96.40;;;;;;5089505;28;20473;-49
2022/06/23 07:09:57;;;;;;;10.07;4.87;;;23.60;95.60;;;;;;5090375;28;20433;-51
2022/06/23 07:12:32;;;;;;;9.83;4.70;;;23.70;94.40;;;;;;5089847;28;20517;-53
2022/06/23 07:15:31;;;;;;;9.20;4.70;;;23.60;94.60;;;;;;5077596;28;20437;-53
2022/06/23 07:17:57;;;;;;;9.13;4.60;;;23.70;94.60;;;;;;5090117;28;20439;-52
2022/06/23 07:20:28;;;;;;;7.20;4.43;;;24.00;94.50;;;;;;5092530;28;20583;-53
2022/06/23 07:23:16;;;;;;;8.07;3.77;;;24.20;93.50;;;;;;5095492;28;20596;-53
2022/06/23 07:25:48;;;;;;;10.50;4.20;;;24.30;93.60;;;;;;5094382;28;20489;-50
2022/06/23 07:28:33;;;;;;;8.73;4.93;;;24.60;93.10;;;;;;5096761;28;20471;-53
2022/06/23 07:31:19;;;;;;;6.57;4.90;;;24.90;93.00;;;;;;5097041;28;20473;-54
2022/06/23 07:33:50;;;;;;;7.43;3.90;;;25.10;92.20;;;;;;5095107;28;20463;-55
2022/06/23 07:36:28;;;;;;;7.27;5.43;;;25.10;92.20;;;;;;5096647;28;20426;-53
2022/06/23 07:39:04;;;;;;;5.50;3.87;;;25.40;92.10;;;;;;5093793;28;20540;-55
2022/06/23 07:41:44;;;;;;;8.00;5.63;;;25.60;90.20;;;;;;5094389;28;20571;-53
2022/06/23 07:44:25;;;;;;;15.17;5.30;;;25.70;90.20;;;;;;5077122;28;20478;-54
2022/06/23 07:46:50;;;;;;;9.10;4.70;;;25.90;90.00;;;;;;5091855;28;20857;-52
2022/06/23 07:49:17;;;;;;;8.13;4.43;;;25.90;89.90;;;;;;5096909;28;20431;-57
2022/06/23 07:51:43;;;;;;;6.90;4.73;;;25.90;90.00;;;;;;5096769;28;20190;-55
2022/06/23 07:54:18;;;;;;;6.63;4.37;;;25.90;90.10;;;;;;5094977;28;20435;-55
2022/06/23 07:56:44;;;;;;;9.87;5.40;;;25.90;89.70;;;;;;5086633;28;20428;-52
2022/06/23 07:59:37;;;;;;;5.13;4.50;;;25.90;90.10;;;;;;5096576;28;20493;-53
2022/06/23 08:02:18;;;;;;;6.23;4.63;;;25.90;90.00;;;;;;5097049;28;20456;-57
2022/06/23 08:05:01;;;;;;;9.53;4.80;;;25.90;90.10;;;;;;5097005;28;20419;-53
2022/06/23 08:07:26;;;;;;;7.73;4.77;;;26.20;88.90;;;;;;5094150;28;20422;-53
2022/06/23 08:10:22;;;;;;;7.57;4.53;;;26.30;87.70;;;;;;5092925;28;20475;-48
2022/06/23 08:13:13;;;;;;;8.27;4.33;;;26.10;88.50;;;;;;5093232;28;20277;-49
2022/06/23 08:18:43;;;;;;;8.07;4.30;;;25.90;88.40;;;;;;5092373;28;20828;-50
2022/06/23 08:21:19;;;;;;;6.23;4.30;;;26.00;89.30;;;;;;5094399;28;20560;-49
2022/06/23 08:23:54;;;;;;;7.83;4.53;;;26.30;89.70;;;;;;5094554;28;20436;-50
2022/06/23 08:26:21;;;;;;;5.60;4.03;;;26.40;83.70;;;;;;5096161;28;20703;-50
2022/06/23 08:28:50;;;;;;;6.20;3.67;;;26.60;83.60;;;;;;5097012;28;20700;-57
2022/06/23 08:31:16;;;;;;;9.93;4.00;;;26.70;82.30;;;;;;5093304;28;20549;-51
2022/06/23 08:33:42;;;;;;;5.70;3.63;;;26.80;82.60;;;;;;5091498;28;20425;-53
2022/06/23 08:36:11;;;;;;;8.90;4.50;;;26.90;83.10;;;;;;5093385;28;20443;-50
2022/06/23 08:38:49;;;;;;;8.60;3.90;;;27.00;83.10;;;;;;5092536;28;20419;-51
2022/06/23 08:41:56;;;;;;;8.10;4.57;;;27.10;83.20;;;;;;5094385;28;20452;-53
2022/06/23 08:44:26;;;;;;;7.87;3.57;;;27.20;81.90;;;;;;5094264;28;20438;-55
2022/06/23 08:46:54;;;;;;;6.03;3.40;;;27.00;79.10;;;;;;5078730;28;20430;-51
2022/06/23 08:49:32;;;;;;;7.53;4.10;;;27.00;79.60;;;;;;5094536;28;20615;-50
2022/06/23 08:52:04;;;;;;;6.23;3.50;;;26.80;78.90;;;;;;5096504;28;20418;-50
2022/06/23 08:54:54;;;;;;;9.70;4.30;;;26.80;80.70;;;;;;5094829;28;20455;-52
2022/06/23 08:57:26;;;;;;;7.70;4.53;;;26.70;81.40;;;;;;5096154;28;20393;-51
2022/06/23 08:59:58;;;;;;;8.10;5.00;;;26.70;82.30;;;;;;5093512;28;20425;-53
2022/06/23 09:02:39;;;;;;;6.50;3.57;;;26.70;83.40;;;;;;5091166;28;20460;-49
2022/06/23 09:05:19;;;;;;;8.33;4.40;;;27.10;81.80;;;;;;5091944;28;20520;-54
2022/06/23 09:08:13;;;;;;;4.97;3.57;;;27.50;79.40;;;;;;5091750;28;20403;-49
2022/06/23 09:10:53;;;;;;;6.27;3.43;;;27.90;75.90;;;;;;5095188;28;20411;-55
2022/06/23 09:13:24;;;;;;;6.13;3.23;;;28.10;75.10;;;;;;5097434;28;20425;-51
2022/06/23 09:15:56;;;;;;;7.43;3.80;;;28.30;71.60;;;;;;5097539;28;20681;-53
2022/06/23 09:18:40;;;;;;;8.43;3.47;;;28.30;72.50;;;;;;5097170;28;20449;-55
2022/06/23 09:21:33;;;;;;;3.87;3.20;;;28.30;72.30;;;;;;5096971;28;20418;-53
2022/06/23 09:24:17;;;;;;;7.90;3.80;;;28.50;70.60;;;;;;5097275;28;20473;-51
2022/06/23 09:26:46;;;;;;;6.10;3.63;;;28.60;71.00;;;;;;5093218;28;20421;-54
2022/06/23 09:29:14;;;;;;;9.97;3.77;;;28.90;71.80;;;;;;5094740;28;20425;-50
2022/06/23 09:31:48;;;;;;;8.03;3.60;;;29.30;71.40;;;;;;5092952;28;20888;-51
2022/06/23 09:34:58;;;;;;;6.00;3.53;;;29.70;67.50;;;;;;5093778;28;20500;-54
2022/06/23 09:37:38;;;;;;;6.30;2.67;;;30.10;67.10;;;;;;5092869;28;20431;-54
2022/06/23 09:40:15;;;;;;;6.43;3.53;;;30.40;64.40;;;;;;5095023;28;20459;-57
2022/06/23 09:43:19;;;;;;;5.37;3.60;;;30.50;62.20;;;;;;5094920;28;20895;-55
2022/06/23 09:45:48;;;;;;;6.50;2.97;;;30.80;64.00;;;;;;5032965;28;20442;-53
2022/06/23 09:48:48;;;;;;;5.10;2.90;;;31.00;59.40;;;;;;5031905;28;20417;-57
2022/06/23 09:51:48;;;;;;;5.50;3.50;;;31.10;60.60;;;;;;5075784;28;20427;-56
2022/06/23 09:54:18;;;;;;;4.73;2.90;;;31.30;57.70;;;;;;5067310;28;20590;-54
2022/06/23 09:57:21;;;;;;;4.77;3.00;;;31.40;58.10;;;;;;5093378;28;20838;-58
2022/06/23 10:00:13;;;;;;;7.60;3.90;;;31.40;56.40;;;;;;5096857;28;20392;-56
2022/06/23 10:02:52;;;;;;;6.37;3.60;;;31.40;58.40;;;;;;5095161;28;20587;-57
2022/06/23 10:05:17;;;;;;;7.60;3.53;;;31.80;57.50;;;;;;5094780;28;20795;-58
2022/06/23 10:08:16;;;;;;;5.97;4.00;;;31.90;56.00;;;;;;5095681;28;20404;-54
2022/06/23 10:10:50;;;;;;;7.80;3.67;;;31.70;56.00;;;;;;5097058;28;20199;-53
2022/06/23 10:13:31;;;;;;;7.50;3.83;;;31.40;55.70;;;;;;5096578;28;20396;-55
2022/06/23 10:16:06;;;;;;;3.83;2.80;;;31.20;55.60;;;;;;5097690;28;20439;-56
2022/06/23 10:18:38;;;;;;;9.80;3.07;;;31.20;55.30;;;;;;5095896;28;20436;-56
2022/06/23 10:21:09;;;;;;;8.73;3.27;;;31.30;54.60;;;;;;5094065;28;20567;-56
2022/06/23 10:24:02;;;;;;;5.23;2.70;;;31.30;54.40;;;;;;5095239;28;20405;-57
2022/06/23 10:26:31;;;;;;;7.23;2.97;;;31.40;54.80;;;;;;5095266;28;20450;-56
2022/06/23 10:29:15;;;;;;;5.10;3.07;;;31.20;54.20;;;;;;5091086;28;20423;-55
2022/06/23 10:31:51;;;;;;;5.10;2.77;;;31.20;55.10;;;;;;5091328;28;20465;-57
2022/06/23 10:34:31;;;;;;;7.40;3.63;;;31.60;53.70;;;;;;5093678;28;21094;-57
2022/06/23 10:37:00;;;;;;;5.60;2.97;;;32.20;54.00;;;;;;5093687;28;20524;-50
2022/06/23 10:40:02;;;;;;;6.87;2.80;;;32.60;52.40;;;;;;5091946;28;20439;-52
2022/06/23 10:42:47;;;;;;;7.97;2.73;;;32.50;51.60;;;;;;5092292;28;20709;-50
2022/06/23 10:46:11;;;;;;;5.97;3.67;;;33.00;50.80;;;;;;5090994;28;20422;-51
2022/06/23 10:48:37;;;;;;;4.63;3.03;;;33.50;52.60;;;;;;5006844;28;20428;-54
2022/06/23 10:51:33;;;;;;;7.33;3.20;;;34.00;51.20;;;;;;5005992;28;20436;-52
2022/06/23 10:54:23;;;;;;;6.80;3.30;;;34.50;51.60;;;;;;5056733;28;20235;-51
2022/06/23 10:57:02;;;;;;;7.87;3.77;;;34.80;48.50;;;;;;5072169;28;20393;-50
2022/06/23 10:59:53;;;;;;;6.47;3.17;;;34.40;47.80;;;;;;5072493;28;20403;-50
2022/06/23 11:02:43;;;;;;;5.47;3.53;;;33.60;49.80;;;;;;5082538;28;20522;-52
2022/06/23 11:05:37;;;;;;;9.00;4.40;;;33.20;49.50;;;;;;5085019;28;20433;-52
2022/06/23 11:08:16;;;;;;;7.77;3.77;;;33.40;51.10;;;;;;5072673;28;20397;-52
2022/06/23 11:10:59;;;;;;;6.80;3.60;;;33.80;50.20;;;;;;5088511;28;20855;-49
2022/06/23 11:13:33;;;;;;;7.13;3.40;;;34.60;50.10;;;;;;5093296;28;20843;-50
2022/06/23 11:16:08;;;;;;;4.23;2.93;;;35.20;49.10;;;;;;5092977;28;20448;-52
2022/06/23 11:18:53;;;;;;;6.63;3.20;;;35.60;47.60;;;;;;5092101;28;20618;-51
2022/06/23 11:21:35;;;;;;;7.37;3.30;;;35.90;45.30;;;;;;5092935;28;20480;-53
2022/06/23 11:24:24;;;;;;;8.07;3.57;;;35.60;44.90;;;;;;5095935;28;20427;-51
2022/06/23 11:27:05;;;;;;;6.17;3.10;;;34.80;46.00;;;;;;5077867;28;20434;-52
2022/06/23 11:29:38;;;;;;;6.33;3.37;;;34.70;47.70;;;;;;5072120;28;20731;-51
2022/06/23 11:32:41;;;;;;;6.60;3.70;;;34.60;45.80;;;;;;5071457;28;20494;-55
2022/06/23 11:35:37;;;;;;;9.73;3.43;;;34.10;46.50;;;;;;5074146;28;20421;-50
2022/06/23 11:38:31;;;;;;;4.70;3.23;;;33.40;47.40;;;;;;5074862;28;20406;-47
2022/06/23 11:41:09;;;;;;;7.43;3.80;;;33.30;48.40;;;;;;5072688;28;20534;-47
2022/06/23 11:44:04;;;;;;;6.40;3.50;;;33.50;47.80;;;;;;5070215;28;20399;-48
2022/06/23 11:46:35;;;;;;;6.13;3.70;;;33.40;48.40;;;;;;5000630;28;20769;-47
2022/06/23 11:49:12;;;;;;;7.47;3.93;;;33.70;47.90;;;;;;5073861;28;20824;-47
2022/06/23 11:52:31;;;;;;;5.90;4.23;;;33.70;46.80;;;;;;5075773;28;20393;-48
2022/06/23 11:55:23;;;;;;;6.03;3.40;;;34.30;47.40;;;;;;5046872;28;20757;-47
2022/06/23 11:58:24;;;;;;;5.53;3.30;;;34.30;46.00;;;;;;5071808;28;20444;-47
2022/06/23 12:01:14;;;;;;;6.03;3.40;;;34.20;45.90;;;;;;5071617;28;20418;-49
2022/06/23 12:04:04;;;;;;;6.77;3.80;;;34.40;46.10;;;;;;5073554;28;20412;-47
2022/06/23 12:07:01;;;;;;;9.47;3.40;;;34.80;46.80;;;;;;5091764;28;20843;-47
2022/06/23 12:09:34;;;;;;;5.90;3.40;;;35.50;44.60;;;;;;5092110;28;20416;-48
2022/06/23 12:12:05;;;;;;;8.57;3.50;;;35.30;44.00;;;;;;5094784;28;20421;-47
2022/06/23 12:14:32;;;;;;;9.13;4.20;;;35.30;44.30;;;;;;5095752;28;20412;-45
2022/06/23 12:17:12;;;;;;;6.00;3.27;;;35.10;44.10;;;;;;5092310;28;20759;-47
2022/06/23 12:20:21;;;;;;;5.40;3.40;;;34.90;44.80;;;;;;5097371;28;20388;-48
2022/06/23 12:22:59;;;;;;;6.70;3.47;;;35.60;45.20;;;;;;5064448;28;20451;-46
2022/06/23 12:25:43;;;;;;;11.80;3.70;;;36.20;43.90;;;;;;5095484;28;20419;-44
2022/06/23 12:28:11;;;;;;;4.80;3.13;;;36.00;42.70;;;;;;5094458;28;20831;-44
2022/06/23 12:30:46;;;;;;;4.20;2.73;;;35.30;43.60;;;;;;5093210;28;20443;-46
2022/06/23 12:33:32;;;;;;;7.30;3.33;;;35.00;45.00;;;;;;5093921;28;20689;-46
2022/06/23 12:36:09;;;;;;;6.70;3.40;;;34.90;45.10;;;;;;5095416;28;20422;-46
2022/06/23 12:38:53;;;;;;;5.97;3.77;;;35.30;45.70;;;;;;5093609;28;21134;-45
2022/06/23 12:41:23;;;;;;;4.70;3.60;;;35.60;44.30;;;;;;5096722;28;20415;-46
2022/06/23 12:43:57;;;;;;;7.30;3.23;;;35.70;44.50;;;;;;5096236;28;20430;-48
2022/06/23 12:46:43;;;;;;;6.73;3.30;;;36.00;42.60;;;;;;5096423;28;20773;-49
2022/06/23 12:49:22;;;;;;;5.50;3.20;;;35.70;42.30;;;;;;5089709;28;20670;-47
2022/06/23 12:51:57;;;;;;;7.73;3.40;;;35.50;43.40;;;;;;5075852;28;20402;-47
2022/06/23 12:54:53;;;;;;;6.90;3.67;;;35.40;43.70;;;;;;5089204;28;20516;-49
2022/06/23 12:58:01;;;;;;;7.67;3.93;;;35.20;43.40;;;;;;5075099;28;20419;-47
2022/06/23 13:00:52;;;;;;;4.80;3.20;;;35.20;43.50;;;;;;5065182;28;20422;-50
2022/06/23 13:03:23;;;;;;;6.83;3.47;;;35.70;43.00;;;;;;5082465;28;20483;-47
2022/06/23 13:05:52;;;;;;;5.47;2.80;;;35.90;42.30;;;;;;5093660;28;20409;-46
2022/06/23 13:08:35;;;;;;;5.37;3.10;;;36.00;42.00;;;;;;5090665;28;20427;-49
2022/06/23 13:11:27;;;;;;;6.27;3.23;;;36.20;41.70;;;;;;5094531;28;20401;-47
2022/06/23 13:14:03;;;;;;;8.40;3.10;;;35.90;42.20;;;;;;5089950;28;20405;-48
2022/06/23 13:16:48;;;;;;;5.00;2.87;;;35.60;41.90;;;;;;5072978;28;20506;-49
2022/06/23 13:19:22;;;;;;;4.63;2.93;;;36.10;42.80;;;;;;5087448;28;20455;-47
2022/06/23 13:21:48;;;;;;;5.83;3.83;;;36.70;40.90;;;;;;5092538;28;20786;-49
2022/06/23 13:24:19;;;;;;;3.53;2.70;;;37.10;40.50;;;;;;5092537;28;20423;-51
2022/06/23 13:26:57;;;;;;;6.03;3.27;;;37.30;40.90;;;;;;5089992;28;20192;-50
2022/06/23 13:29:27;;;;;;;9.20;3.10;;;37.40;41.00;;;;;;5095311;28;20777;-47
2022/06/23 13:32:14;;;;;;;6.17;3.60;;;37.80;39.40;;;;;;5092630;28;20506;-46
2022/06/23 13:35:00;;;;;;;8.13;3.63;;;37.60;39.30;;;;;;5093711;28;20434;-48
2022/06/23 13:37:54;;;;;;;5.20;3.30;;;37.30;39.40;;;;;;5095772;28;20407;-47
2022/06/23 13:40:32;;;;;;;6.00;3.50;;;37.50;40.10;;;;;;5093592;28;20439;-46
2022/06/23 13:43:07;;;;;;;8.07;3.60;;;38.10;41.00;;;;;;5094943;28;20455;-46
2022/06/23 13:45:36;;;;;;;7.20;3.40;;;38.30;39.30;;;;;;5096230;28;20834;-48
2022/06/23 13:48:36;;;;;;;5.03;3.00;;;38.50;38.80;;;;;;5095135;28;20419;-46
2022/06/23 13:51:02;;;;;;;6.43;2.93;;;38.10;39.00;;;;;;5051676;28;20433;-48
2022/06/23 13:53:34;;;;;;;5.47;3.43;;;37.90;40.40;;;;;;5096049;28;20423;-49
2022/06/23 13:56:26;;;;;;;5.40;3.50;;;38.00;39.40;;;;;;5093089;28;20410;-48
2022/06/23 13:59:34;;;;;;;6.70;3.40;;;37.30;39.00;;;;;;5093266;28;20670;-47